sensor_id;sensor_type;location;lat;lon;timestamp;pressure;altitude;pressure_sealevel;temperature;humidity
76434;BME280;65265;53.200;6.080;2023-05-10T00:03:32;100738.63;;;12.20;100.00
76434;BME280;65265;53.200;6.080;2023-05-10T00:08:25;100736.06;;;12.20;100.00
76434;BME280;65265;53.200;6.080;2023-05-10T00:13:16;100728.38;;;12.20;100.00
76434;BME280;65265;53.200;6.080;2023-05-10T00:18:07;100728.19;;;12.14;100.00
76434;BME280;65265;53.200;6.080;2023-05-10T00:22:59;100729.81;;;12.12;100.00
76434;BME280;65265;53.200;6.080;2023-05-10T00:27:52;100717.84;;;12.11;100.00
76434;BME280;65265;53.200;6.080;2023-05-10T00:32:45;100724.91;;;12.18;100.00
76434;BME280;65265;53.200;6.080;2023-05-10T00:37:38;100715.19;;;12.08;100.00
76434;BME280;65265;53.200;6.080;2023-05-10T00:42:29;100708.25;;;12.05;100.00
76434;BME280;65265;53.200;6.080;2023-05-10T00:47:22;100703.91;;;12.03;100.00
76434;BME280;65265;53.200;6.080;2023-05-10T00:52:14;100717.53;;;12.02;100.00
76434;BME280;65265;53.200;6.080;2023-05-10T00:57:05;100707.19;;;11.99;100.00
76434;BME280;65265;53.200;6.080;2023-05-10T01:01:57;100709.22;;;12.09;100.00
76434;BME280;65265;53.200;6.080;2023-05-10T01:06:50;100709.81;;;12.00;100.00
76434;BME280;65265;53.200;6.080;2023-05-10T01:11:43;100711.50;;;12.00;100.00
76434;BME280;65265;53.200;6.080;2023-05-10T01:16:37;100707.94;;;11.95;100.00
76434;BME280;65265;53.200;6.080;2023-05-10T01:21:32;100708.72;;;11.94;100.00
76434;BME280;65265;53.200;6.080;2023-05-10T01:26:44;100706.06;;;11.91;100.00
76434;BME280;65265;53.200;6.080;2023-05-10T01:32:08;100715.19;;;12.08;100.00
76434;BME280;65265;53.200;6.080;2023-05-10T01:37:06;100703.81;;;12.00;100.00
76434;BME280;65265;53.200;6.080;2023-05-10T01:42:02;100707.88;;;11.93;100.00
76434;BME280;65265;53.200;6.080;2023-05-10T01:46:58;100717.44;;;11.99;100.00
76434;BME280;65265;53.200;6.080;2023-05-10T01:51:59;100711.50;;;12.00;100.00
76434;BME280;65265;53.200;6.080;2023-05-10T01:56:55;100714.06;;;12.00;100.00
76434;BME280;65265;53.200;6.080;2023-05-10T02:01:50;100710.50;;;11.95;100.00
76434;BME280;65265;53.200;6.080;2023-05-10T02:06:42;100714.75;;;11.94;100.00
76434;BME280;65265;53.200;6.080;2023-05-10T02:11:37;100711.34;;;11.95;100.00
76434;BME280;65265;53.200;6.080;2023-05-10T02:16:30;100719.94;;;11.96;100.00
76434;BME280;65265;53.200;6.080;2023-05-10T02:21:22;100715.47;;;11.91;100.00
76434;BME280;65265;53.200;6.080;2023-05-10T02:26:16;100721.84;;;12.03;100.00
76434;BME280;65265;53.200;6.080;2023-05-10T02:31:11;100719.09;;;11.97;100.00
76434;BME280;65265;53.200;6.080;2023-05-10T02:36:03;100726.28;;;12.08;100.00
76434;BME280;65265;53.200;6.080;2023-05-10T02:40:55;100715.06;;;12.05;100.00
76434;BME280;65265;53.200;6.080;2023-05-10T02:45:47;100716.00;;;12.07;100.00
76434;BME280;65265;53.200;6.080;2023-05-10T02:50:44;100723.72;;;12.08;100.00
76434;BME280;65265;53.200;6.080;2023-05-10T02:55:38;100719.50;;;12.09;100.00
76434;BME280;65265;53.200;6.080;2023-05-10T03:00:31;100716.84;;;12.06;100.00
76434;BME280;65265;53.200;6.080;2023-05-10T03:05:23;100721.00;;;12.04;100.00
76434;BME280;65265;53.200;6.080;2023-05-10T03:10:15;100726.88;;;12.00;100.00
76434;BME280;65265;53.200;6.080;2023-05-10T03:15:12;100727.47;;;11.92;100.00
76434;BME280;65265;53.200;6.080;2023-05-10T03:20:09;100721.38;;;11.88;100.00
76434;BME280;65265;53.200;6.080;2023-05-10T03:25:05;100723.84;;;11.85;100.00
76434;BME280;65265;53.200;6.080;2023-05-10T03:30:01;100726.44;;;11.87;100.00
76434;BME280;65265;53.200;6.080;2023-05-10T03:34:53;100724.59;;;11.83;100.00
76434;BME280;65265;53.200;6.080;2023-05-10T03:39:44;100733.78;;;11.76;100.00
76434;BME280;65265;53.200;6.080;2023-05-10T03:44:36;100738.00;;;11.76;100.00
76434;BME280;65265;53.200;6.080;2023-05-10T03:49:28;100744.75;;;11.72;100.00
76434;BME280;65265;53.200;6.080;2023-05-10T03:54:20;100748.94;;;11.70;100.00
76434;BME280;65265;53.200;6.080;2023-05-10T03:59:11;100747.31;;;11.72;100.00
76434;BME280;65265;53.200;6.080;2023-05-10T04:04:03;100752.53;;;11.75;100.00
76434;BME280;65265;53.200;6.080;2023-05-10T04:08:56;100754.13;;;11.72;100.00
76434;BME280;65265;53.200;6.080;2023-05-10T04:13:49;100755.78;;;11.71;100.00
76434;BME280;65265;53.200;6.080;2023-05-10T04:18:41;100757.56;;;11.72;100.00
76434;BME280;65265;53.200;6.080;2023-05-10T04:23:32;100753.38;;;11.76;100.00
76434;BME280;65265;53.200;6.080;2023-05-10T04:28:25;100760.31;;;11.78;100.00
76434;BME280;65265;53.200;6.080;2023-05-10T04:33:17;100769.66;;;11.76;100.00
76434;BME280;65265;53.200;6.080;2023-05-10T04:38:08;100776.56;;;11.79;100.00
76434;BME280;65265;53.200;6.080;2023-05-10T04:43:00;100768.22;;;11.84;100.00
76434;BME280;65265;53.200;6.080;2023-05-10T04:47:53;100781.88;;;11.85;100.00
76434;BME280;65265;53.200;6.080;2023-05-10T04:52:44;100781.63;;;11.77;100.00
76434;BME280;65265;53.200;6.080;2023-05-10T04:57:36;100790.97;;;11.75;100.00
76434;BME280;65265;53.200;6.080;2023-05-10T05:02:27;100801.91;;;11.71;100.00
76434;BME280;65265;53.200;6.080;2023-05-10T05:07:20;100806.94;;;11.68;100.00
76434;BME280;65265;53.200;6.080;2023-05-10T05:12:12;100812.81;;;11.66;100.00
76434;BME280;65265;53.200;6.080;2023-05-10T05:17:04;100818.00;;;11.67;100.00
76434;BME280;65265;53.200;6.080;2023-05-10T05:21:55;100817.28;;;11.71;100.00
76434;BME280;65265;53.200;6.080;2023-05-10T05:26:48;100821.75;;;11.77;100.00
76434;BME280;65265;53.200;6.080;2023-05-10T05:31:39;100838.88;;;11.78;100.00
76434;BME280;65265;53.200;6.080;2023-05-10T05:36:31;100838.88;;;11.78;100.00
76434;BME280;65265;53.200;6.080;2023-05-10T05:41:22;100846.59;;;11.79;100.00
76434;BME280;65265;53.200;6.080;2023-05-10T05:46:16;100843.34;;;11.83;100.00
76434;BME280;65265;53.200;6.080;2023-05-10T05:51:08;100847.66;;;11.84;100.00
76434;BME280;65265;53.200;6.080;2023-05-10T05:55:59;100855.22;;;11.81;100.00
76434;BME280;65265;53.200;6.080;2023-05-10T06:00:51;100863.84;;;11.83;100.00
76434;BME280;65265;53.200;6.080;2023-05-10T06:05:44;100869.81;;;11.84;100.00
76434;BME280;65265;53.200;6.080;2023-05-10T06:10:36;100873.31;;;11.86;100.00
76434;BME280;65265;53.200;6.080;2023-05-10T06:15:27;100867.19;;;11.82;100.00
76434;BME280;65265;53.200;6.080;2023-05-10T06:20:19;100872.47;;;11.85;100.00
76434;BME280;65265;53.200;6.080;2023-05-10T06:25:12;100880.13;;;11.85;100.00
76434;BME280;65265;53.200;6.080;2023-05-10T06:30:05;100884.44;;;11.86;100.00
76434;BME280;65265;53.200;6.080;2023-05-10T06:34:58;100887.19;;;11.92;100.00
76434;BME280;65265;53.200;6.080;2023-05-10T06:39:49;100904.47;;;11.97;100.00
76434;BME280;65265;53.200;6.080;2023-05-10T06:44:42;100901.16;;;12.00;100.00
76434;BME280;65265;53.200;6.080;2023-05-10T06:49:34;100901.25;;;12.03;100.00
76434;BME280;65265;53.200;6.080;2023-05-10T06:54:25;100912.72;;;12.12;100.00
76434;BME280;65265;53.200;6.080;2023-05-10T06:59:17;100925.06;;;12.24;100.00
76434;BME280;65265;53.200;6.080;2023-05-10T07:04:11;100914.13;;;12.28;100.00
76434;BME280;65265;53.200;6.080;2023-05-10T07:09:03;100915.97;;;12.32;100.00
76434;BME280;65265;53.200;6.080;2023-05-10T07:13:54;100913.47;;;12.35;100.00
76434;BME280;65265;53.200;6.080;2023-05-10T07:18:45;100924.94;;;12.44;100.00
76434;BME280;65265;53.200;6.080;2023-05-10T07:23:38;100928.22;;;12.40;100.00
76434;BME280;65265;53.200;6.080;2023-05-10T07:28:29;100938.56;;;12.43;100.00
76434;BME280;65265;53.200;6.080;2023-05-10T07:33:21;100940.38;;;12.46;100.00
76434;BME280;65265;53.200;6.080;2023-05-10T07:38:12;100936.38;;;12.54;100.00
76434;BME280;65265;53.200;6.080;2023-05-10T07:43:05;100939.09;;;12.58;100.00
76434;BME280;65265;53.200;6.080;2023-05-10T07:47:57;100945.19;;;12.62;100.00
76434;BME280;65265;53.200;6.080;2023-05-10T07:52:49;100940.25;;;12.68;100.00
76434;BME280;65265;53.200;6.080;2023-05-10T07:57:41;100957.06;;;12.60;100.00
76434;BME280;65265;53.200;6.080;2023-05-10T08:02:35;100967.50;;;12.64;100.00
76434;BME280;65265;53.200;6.080;2023-05-10T08:07:27;100971.13;;;12.71;100.00
76434;BME280;65265;53.200;6.080;2023-05-10T08:12:19;100979.72;;;12.71;100.00
76434;BME280;65265;53.200;6.080;2023-05-10T08:17:10;100988.34;;;12.73;100.00
76434;BME280;65265;53.200;6.080;2023-05-10T08:22:03;100984.28;;;12.80;100.00
76434;BME280;65265;53.200;6.080;2023-05-10T08:26:54;100987.50;;;12.98;100.00
76434;BME280;65265;53.200;6.080;2023-05-10T08:31:46;100987.44;;;13.23;100.00
76434;BME280;65265;53.200;6.080;2023-05-10T08:36:37;100980.38;;;13.44;100.00
76434;BME280;65265;53.200;6.080;2023-05-10T08:41:32;100982.50;;;13.57;100.00
76434;BME280;65265;53.200;6.080;2023-05-10T08:46:26;100988.00;;;13.69;100.00
76434;BME280;65265;53.200;6.080;2023-05-10T08:51:23;100987.44;;;13.79;100.00
76434;BME280;65265;53.200;6.080;2023-05-10T08:56:17;100998.84;;;13.88;100.00
76434;BME280;65265;53.200;6.080;2023-05-10T09:01:12;101002.09;;;13.83;100.00
76434;BME280;65265;53.200;6.080;2023-05-10T09:06:05;101015.09;;;13.87;100.00
76434;BME280;65265;53.200;6.080;2023-05-10T09:10:57;101022.53;;;14.06;100.00
76434;BME280;65265;53.200;6.080;2023-05-10T09:15:49;101019.38;;;14.16;100.00
76434;BME280;65265;53.200;6.080;2023-05-10T09:20:42;101028.94;;;14.19;100.00
76434;BME280;65265;53.200;6.080;2023-05-10T09:25:33;101026.13;;;14.41;100.00
76434;BME280;65265;53.200;6.080;2023-05-10T09:30:28;101040.75;;;14.43;100.00
76434;BME280;65265;53.200;6.080;2023-05-10T09:35:22;101050.69;;;14.30;100.00
76434;BME280;65265;53.200;6.080;2023-05-10T09:40:17;101054.50;;;14.16;100.00
76434;BME280;65265;53.200;6.080;2023-05-10T09:45:09;101052.75;;;14.15;100.00
76434;BME280;65265;53.200;6.080;2023-05-10T09:50:01;101049.34;;;14.16;100.00
76434;BME280;65265;53.200;6.080;2023-05-10T09:54:55;101061.63;;;14.23;100.00
76434;BME280;65265;53.200;6.080;2023-05-10T09:59:48;101057.50;;;14.28;100.00
76434;BME280;65265;53.200;6.080;2023-05-10T10:04:40;101070.34;;;14.28;100.00
76434;BME280;65265;53.200;6.080;2023-05-10T10:09:33;101069.19;;;14.18;100.00
76434;BME280;65265;53.200;6.080;2023-05-10T10:14:25;101069.78;;;14.10;100.00
76434;BME280;65265;53.200;6.080;2023-05-10T10:19:18;101084.31;;;14.09;100.00
76434;BME280;65265;53.200;6.080;2023-05-10T10:24:09;101085.28;;;14.13;100.00
76434;BME280;65265;53.200;6.080;2023-05-10T10:29:08;101091.00;;;14.31;100.00
76434;BME280;65265;53.200;6.080;2023-05-10T10:34:05;101091.91;;;14.33;100.00
76434;BME280;65265;53.200;6.080;2023-05-10T10:39:00;101096.16;;;14.31;99.09
76434;BME280;65265;53.200;6.080;2023-05-10T10:44:22;101100.75;;;14.42;99.84
76434;BME280;65265;53.200;6.080;2023-05-10T10:49:14;101094.53;;;14.63;100.00
76434;BME280;65265;53.200;6.080;2023-05-10T10:54:11;101097.50;;;14.78;98.09
76434;BME280;65265;53.200;6.080;2023-05-10T10:59:03;101104.38;;;14.79;96.75
76434;BME280;65265;53.200;6.080;2023-05-10T11:04:18;101106.84;;;14.75;94.08
76434;BME280;65265;53.200;6.080;2023-05-10T11:09:12;101108.84;;;14.85;96.06
76434;BME280;65265;53.200;6.080;2023-05-10T11:14:06;101114.63;;;15.09;98.45
76434;BME280;65265;53.200;6.080;2023-05-10T11:19:00;101122.34;;;15.07;95.20
76434;BME280;65265;53.200;6.080;2023-05-10T11:23:53;101124.13;;;15.11;94.92
76434;BME280;65265;53.200;6.080;2023-05-10T11:28:48;101129.59;;;15.23;92.62
76434;BME280;65265;53.200;6.080;2023-05-10T11:33:43;101131.22;;;15.18;91.09
76434;BME280;65265;53.200;6.080;2023-05-10T11:38:35;101129.81;;;15.31;92.93
76434;BME280;65265;53.200;6.080;2023-05-10T11:43:27;101141.13;;;15.36;90.98
76434;BME280;65265;53.200;6.080;2023-05-10T11:48:22;101138.50;;;15.34;90.84
76434;BME280;65265;53.200;6.080;2023-05-10T11:53:14;101137.59;;;15.32;92.07
76434;BME280;65265;53.200;6.080;2023-05-10T11:58:05;101144.56;;;15.35;88.51
76434;BME280;65265;53.200;6.080;2023-05-10T12:02:57;101150.22;;;15.23;89.61
76434;BME280;65265;53.200;6.080;2023-05-10T12:07:50;101160.38;;;15.17;88.13
76434;BME280;65265;53.200;6.080;2023-05-10T12:12:42;101158.53;;;15.13;89.44
76434;BME280;65265;53.200;6.080;2023-05-10T12:17:37;101161.09;;;15.12;88.81
76434;BME280;65265;53.200;6.080;2023-05-10T12:22:28;101163.75;;;15.15;89.11
76434;BME280;65265;53.200;6.080;2023-05-10T12:27:21;101172.19;;;15.09;91.26
76434;BME280;65265;53.200;6.080;2023-05-10T12:32:12;101171.84;;;14.97;88.48
76434;BME280;65265;53.200;6.080;2023-05-10T12:37:04;101182.03;;;14.93;90.62
76434;BME280;65265;53.200;6.080;2023-05-10T12:41:55;101181.31;;;14.98;91.92
76434;BME280;65265;53.200;6.080;2023-05-10T12:46:48;101194.47;;;15.07;89.93
76434;BME280;65265;53.200;6.080;2023-05-10T12:51:40;101189.88;;;15.28;91.55
76434;BME280;65265;53.200;6.080;2023-05-10T12:56:32;101191.28;;;15.48;91.26
76434;BME280;65265;53.200;6.080;2023-05-10T13:01:23;101196.66;;;15.57;89.39
76434;BME280;65265;53.200;6.080;2023-05-10T13:06:16;101200.56;;;15.74;89.66
76434;BME280;65265;53.200;6.080;2023-05-10T13:11:07;101199.16;;;15.88;90.74
76434;BME280;65265;53.200;6.080;2023-05-10T13:15:59;101197.66;;;15.98;89.43
76434;BME280;65265;53.200;6.080;2023-05-10T13:20:50;101194.47;;;16.08;88.87
76434;BME280;65265;53.200;6.080;2023-05-10T13:25:43;101200.63;;;16.14;85.12
76434;BME280;65265;53.200;6.080;2023-05-10T13:30:35;101207.63;;;16.18;80.94
76434;BME280;65265;53.200;6.080;2023-05-10T13:35:26;101210.09;;;16.14;83.05
76434;BME280;65265;53.200;6.080;2023-05-10T13:40:18;101212.78;;;16.18;82.20
76434;BME280;65265;53.200;6.080;2023-05-10T13:45:11;101207.69;;;16.21;83.62
76434;BME280;65265;53.200;6.080;2023-05-10T13:50:03;101215.38;;;16.18;83.17
76434;BME280;65265;53.200;6.080;2023-05-10T13:54:55;101209.88;;;16.40;87.60
76434;BME280;65265;53.200;6.080;2023-05-10T13:59:47;101199.94;;;16.58;85.13
76434;BME280;65265;53.200;6.080;2023-05-10T14:04:40;101203.75;;;16.75;84.43
76434;BME280;65265;53.200;6.080;2023-05-10T14:09:31;101214.19;;;16.81;80.53
76434;BME280;65265;53.200;6.080;2023-05-10T14:14:23;101208.41;;;16.92;82.39
76434;BME280;65265;53.200;6.080;2023-05-10T14:19:15;101216.50;;;17.09;81.47
76434;BME280;65265;53.200;6.080;2023-05-10T14:24:07;101208.81;;;17.12;75.44
76434;BME280;65265;53.200;6.080;2023-05-10T14:28:59;101216.56;;;17.12;80.66
76434;BME280;65265;53.200;6.080;2023-05-10T14:33:50;101214.09;;;17.18;81.78
76434;BME280;65265;53.200;6.080;2023-05-10T14:38:42;101219.47;;;17.28;82.86
76434;BME280;65265;53.200;6.080;2023-05-10T14:43:34;101209.38;;;17.39;80.20
76434;BME280;65265;53.200;6.080;2023-05-10T14:48:26;101222.00;;;17.27;75.39
76434;BME280;65265;53.200;6.080;2023-05-10T14:53:18;101219.03;;;17.07;78.79
76434;BME280;65265;53.200;6.080;2023-05-10T14:58:09;101229.75;;;16.83;80.75
76434;BME280;65265;53.200;6.080;2023-05-10T15:03:03;101233.50;;;16.58;82.82
76434;BME280;65265;53.200;6.080;2023-05-10T15:07:54;101232.50;;;16.50;83.44
76434;BME280;65265;53.200;6.080;2023-05-10T15:12:46;101234.66;;;16.34;78.91
76434;BME280;65265;53.200;6.080;2023-05-10T15:17:37;101236.69;;;16.11;80.56
76434;BME280;65265;53.200;6.080;2023-05-10T15:22:30;101241.63;;;16.01;82.27
76434;BME280;65265;53.200;6.080;2023-05-10T15:27:21;101250.72;;;15.87;83.62
76434;BME280;65265;53.200;6.080;2023-05-10T15:32:13;101256.69;;;15.84;85.18
76434;BME280;65265;53.200;6.080;2023-05-10T15:37:05;101257.59;;;15.86;85.38
76434;BME280;65265;53.200;6.080;2023-05-10T15:41:57;101259.97;;;15.79;84.65
76434;BME280;65265;53.200;6.080;2023-05-10T15:46:49;101269.28;;;15.74;86.23
76434;BME280;65265;53.200;6.080;2023-05-10T15:51:40;101279.53;;;15.71;85.08
76434;BME280;65265;53.200;6.080;2023-05-10T15:56:32;101286.66;;;15.48;86.50
76434;BME280;65265;53.200;6.080;2023-05-10T16:01:25;101284.25;;;15.54;87.91
76434;BME280;65265;53.200;6.080;2023-05-10T16:06:17;101298.75;;;15.51;86.57
76434;BME280;65265;53.200;6.080;2023-05-10T16:11:09;101302.44;;;15.60;89.09
76434;BME280;65265;53.200;6.080;2023-05-10T16:16:00;101293.72;;;15.55;87.60
76434;BME280;65265;53.200;6.080;2023-05-10T16:20:53;101292.31;;;15.66;87.38
76434;BME280;65265;53.200;6.080;2023-05-10T16:25:45;101301.97;;;15.73;87.56
76434;BME280;65265;53.200;6.080;2023-05-10T16:30:37;101302.41;;;15.91;88.85
76434;BME280;65265;53.200;6.080;2023-05-10T16:35:29;101305.47;;;16.09;87.18
76434;BME280;65265;53.200;6.080;2023-05-10T16:40:21;101313.56;;;16.23;87.44
76434;BME280;65265;53.200;6.080;2023-05-10T16:45:14;101313.75;;;16.32;83.69
76434;BME280;65265;53.200;6.080;2023-05-10T16:50:06;101315.38;;;16.27;83.98
76434;BME280;65265;53.200;6.080;2023-05-10T16:54:58;101324.91;;;16.29;84.59
76434;BME280;65265;53.200;6.080;2023-05-10T16:59:51;101331.81;;;16.30;84.16
76434;BME280;65265;53.200;6.080;2023-05-10T17:04:43;101334.03;;;16.51;84.22
76434;BME280;65265;53.200;6.080;2023-05-10T17:09:34;101336.50;;;16.46;81.93
76434;BME280;65265;53.200;6.080;2023-05-10T17:14:26;101342.16;;;16.32;82.74
76434;BME280;65265;53.200;6.080;2023-05-10T17:19:19;101346.69;;;16.06;82.33
76434;BME280;65265;53.200;6.080;2023-05-10T17:24:11;101347.91;;;16.20;84.50
76434;BME280;65265;53.200;6.080;2023-05-10T17:29:02;101353.97;;;16.22;80.50
76434;BME280;65265;53.200;6.080;2023-05-10T17:33:53;101358.56;;;16.00;82.20
76434;BME280;65265;53.200;6.080;2023-05-10T17:38:47;101352.53;;;15.68;84.02
76434;BME280;65265;53.200;6.080;2023-05-10T17:43:38;101361.03;;;15.35;84.02
76434;BME280;65265;53.200;6.080;2023-05-10T17:48:30;101359.53;;;15.15;86.73
76434;BME280;65265;53.200;6.080;2023-05-10T17:53:21;101363.84;;;14.86;85.54
76434;BME280;65265;53.200;6.080;2023-05-10T17:58:14;101369.59;;;14.79;87.41
76434;BME280;65265;53.200;6.080;2023-05-10T18:03:06;101365.81;;;14.68;87.42
76434;BME280;65265;53.200;6.080;2023-05-10T18:07:57;101373.41;;;14.64;89.13
76434;BME280;65265;53.200;6.080;2023-05-10T18:12:48;101378.22;;;14.53;88.09
76434;BME280;65265;53.200;6.080;2023-05-10T18:17:42;101380.44;;;14.43;89.11
76434;BME280;65265;53.200;6.080;2023-05-10T18:22:34;101383.56;;;14.33;89.86
76434;BME280;65265;53.200;6.080;2023-05-10T18:27:26;101382.41;;;14.25;89.75
76434;BME280;65265;53.200;6.080;2023-05-10T18:32:17;101385.25;;;14.09;90.33
76434;BME280;65265;53.200;6.080;2023-05-10T18:37:10;101388.19;;;13.95;91.53
76434;BME280;65265;53.200;6.080;2023-05-10T18:42:02;101392.19;;;13.87;91.45
76434;BME280;65265;53.200;6.080;2023-05-10T18:46:54;101395.19;;;13.75;92.00
76434;BME280;65265;53.200;6.080;2023-05-10T18:51:45;101403.53;;;13.70;93.46
76434;BME280;65265;53.200;6.080;2023-05-10T18:56:38;101404.94;;;13.60;93.03
76434;BME280;65265;53.200;6.080;2023-05-10T19:01:33;101403.75;;;13.52;95.00
76434;BME280;65265;53.200;6.080;2023-05-10T19:06:25;101415.59;;;13.47;94.59
76434;BME280;65265;53.200;6.080;2023-05-10T19:11:17;101416.97;;;13.39;95.19
76434;BME280;65265;53.200;6.080;2023-05-10T19:16:11;101416.69;;;13.32;95.21
76434;BME280;65265;53.200;6.080;2023-05-10T19:21:04;101420.72;;;13.25;95.25
76434;BME280;65265;53.200;6.080;2023-05-10T19:25:56;101431.66;;;13.20;96.63
76434;BME280;65265;53.200;6.080;2023-05-10T19:30:48;101438.28;;;13.15;96.48
76434;BME280;65265;53.200;6.080;2023-05-10T19:35:41;101430.38;;;13.09;97.17
76434;BME280;65265;53.200;6.080;2023-05-10T19:40:33;101433.59;;;13.05;97.05
76434;BME280;65265;53.200;6.080;2023-05-10T19:45:25;101440.16;;;12.97;97.53
76434;BME280;65265;53.200;6.080;2023-05-10T19:50:17;101442.31;;;12.88;97.57
76434;BME280;65265;53.200;6.080;2023-05-10T19:55:10;101448.84;;;12.80;97.87
76434;BME280;65265;53.200;6.080;2023-05-10T20:00:02;101448.53;;;12.72;98.47
76434;BME280;65265;53.200;6.080;2023-05-10T20:04:54;101452.66;;;12.69;98.63
76434;BME280;65265;53.200;6.080;2023-05-10T20:09:45;101451.59;;;12.64;99.14
76434;BME280;65265;53.200;6.080;2023-05-10T20:14:38;101453.72;;;12.53;98.86
76434;BME280;65265;53.200;6.080;2023-05-10T20:19:30;101456.97;;;12.29;100.00
76434;BME280;65265;53.200;6.080;2023-05-10T20:24:21;101469.28;;;12.17;100.00
76434;BME280;65265;53.200;6.080;2023-05-10T20:29:13;101461.09;;;12.06;100.00
76434;BME280;65265;53.200;6.080;2023-05-10T20:34:06;101461.19;;;12.08;100.00
76434;BME280;65265;53.200;6.080;2023-05-10T20:38:57;101467.25;;;12.10;100.00
76434;BME280;65265;53.200;6.080;2023-05-10T20:43:49;101468.25;;;12.13;100.00
76434;BME280;65265;53.200;6.080;2023-05-10T20:48:40;101474.00;;;12.08;100.00
76434;BME280;65265;53.200;6.080;2023-05-10T20:53:33;101470.00;;;11.95;100.00
76434;BME280;65265;53.200;6.080;2023-05-10T20:58:25;101469.75;;;11.90;100.00
76434;BME280;65265;53.200;6.080;2023-05-10T21:03:16;101464.69;;;11.72;100.00
76434;BME280;65265;53.200;6.080;2023-05-10T21:08:08;101467.25;;;11.72;100.00
76434;BME280;65265;53.200;6.080;2023-05-10T21:13:00;101470.47;;;11.68;100.00
76434;BME280;65265;53.200;6.080;2023-05-10T21:17:52;101471.06;;;11.63;100.00
76434;BME280;65265;53.200;6.080;2023-05-10T21:22:44;101479.34;;;11.57;100.00
76434;BME280;65265;53.200;6.080;2023-05-10T21:27:35;101489.81;;;11.44;100.00
76434;BME280;65265;53.200;6.080;2023-05-10T21:32:28;101493.28;;;11.45;100.00
76434;BME280;65265;53.200;6.080;2023-05-10T21:37:20;101495.75;;;11.43;100.00
76434;BME280;65265;53.200;6.080;2023-05-10T21:42:11;101501.38;;;11.36;100.00
76434;BME280;65265;53.200;6.080;2023-05-10T21:47:03;101485.38;;;11.40;100.00
76434;BME280;65265;53.200;6.080;2023-05-10T21:51:57;101496.59;;;11.44;100.00
76434;BME280;65265;53.200;6.080;2023-05-10T21:56:49;101502.69;;;11.46;100.00
76434;BME280;65265;53.200;6.080;2023-05-10T22:01:40;101505.78;;;11.39;100.00
76434;BME280;65265;53.200;6.080;2023-05-10T22:06:32;101486.22;;;11.41;100.00
76434;BME280;65265;53.200;6.080;2023-05-10T22:11:25;101499.19;;;11.26;100.00
76434;BME280;65265;53.200;6.080;2023-05-10T22:16:17;101500.00;;;11.25;100.00
76434;BME280;65265;53.200;6.080;2023-05-10T22:21:09;101503.22;;;11.21;100.00
76434;BME280;65265;53.200;6.080;2023-05-10T22:26:00;101501.63;;;11.23;100.00
76434;BME280;65265;53.200;6.080;2023-05-10T22:30:54;101507.69;;;11.25;100.00
76434;BME280;65265;53.200;6.080;2023-05-10T22:35:46;101513.03;;;11.12;100.00
76434;BME280;65265;53.200;6.080;2023-05-10T22:40:37;101517.69;;;11.03;100.00
76434;BME280;65265;53.200;6.080;2023-05-10T22:45:29;101517.19;;;10.93;100.00
76434;BME280;65265;53.200;6.080;2023-05-10T22:50:21;101508.47;;;10.89;100.00
76434;BME280;65265;53.200;6.080;2023-05-10T22:55:13;101516.63;;;10.98;100.00
76434;BME280;65265;53.200;6.080;2023-05-10T23:00:06;101529.19;;;10.94;100.00
76434;BME280;65265;53.200;6.080;2023-05-10T23:04:58;101548.00;;;10.94;100.00
76434;BME280;65265;53.200;6.080;2023-05-10T23:09:51;101539.34;;;10.92;100.00
76434;BME280;65265;53.200;6.080;2023-05-10T23:14:43;101536.06;;;10.95;100.00
76434;BME280;65265;53.200;6.080;2023-05-10T23:19:35;101519.03;;;10.95;100.00
76434;BME280;65265;53.200;6.080;2023-05-10T23:24:27;101527.19;;;10.88;100.00
76434;BME280;65265;53.200;6.080;2023-05-10T23:29:20;101521.28;;;10.89;100.00
76434;BME280;65265;53.200;6.080;2023-05-10T23:34:13;101519.63;;;10.90;100.00
76434;BME280;65265;53.200;6.080;2023-05-10T23:39:04;101521.19;;;10.88;100.00
76434;BME280;65265;53.200;6.080;2023-05-10T23:43:57;101521.94;;;10.85;100.00
76434;BME280;65265;53.200;6.080;2023-05-10T23:48:50;101520.47;;;10.90;100.00
76434;BME280;65265;53.200;6.080;2023-05-10T23:53:42;101519.66;;;10.91;100.00
76434;BME280;65265;53.200;6.080;2023-05-10T23:58:34;101529.03;;;10.91;100.00
